BIAR

Akureyri Airport

Akureyri, Iceland
METAR BIAR 250000Z 03006KT 9999 OVC028 00/M04 Q1000
Observed Flight Rules
Apr-25 @ 00:00 UTC (54 minutes ago) Marginal Visual Flight Rules
Wind Visibility Clouds
30° at 6 knots 10,000+ meters
  • Overcast at 2,800' AGL
Temperatures Readings
Current 0°C / 32°F
Dewpoint -4°C / 25°F
Humidity 75%
Altimeter 29.53" Hg
Pressure 1000 hPa
Elevation 27
METAR BIAR 250000Z 03006KT 9999 OVC028 00/M04 Q1000
Observed Flight Rules
Apr-25 @ 00:00 UTC
(54 minutes ago)
MVFR
Wind Visibility
30° at 6 knots 10,000+ meters
Clouds
  • Overcast at 2,800' AGL
Temperature Dewpoint
0°C / 32°F -4°C / 25°F
Humidity Altimeter Pressure
75% 29.53" Hg 1000 hPa